Hovedside
METAR-TAF:

METAR-TAF

Lufthavner :

Skavsta lufthavn

Stockholm-Skavsta, Sverige

breddegrad: 58-47N, lengdegrad: 016-55E, høyde over havet: 43 m

Gjeldene værobservasjon

Denne rapporten ble laget for 24 minutter siden, klokken 14:20 UTC
Vind 8 kt fra Sør-sørøst
Temperatur 24°C
Luftfuktighet 50%
Trykk 1025 hPa
Sikt 10 km eller mer
ingen skyer under 1500 m og ingen bygeskyer

METAR: ESKN 071420Z 16008KT CAVOK 24/13 Q1025

Tid: 16:44 (14:44 UTC)

Varsel

Denne rapporten ble laget for 3 timer og 14 minutter siden, klokken 11:30 UTC
Varsel gyldig fra 07. klokken 12 UTC til 08. klokken 12 UTC
Vind 10 kt fra Sør
Sikt 10 km eller mer
ingen skyer under 1500 m og ingen bygeskyer
Sannsynlighet 40%
fra 07. klokken 12 UTC til 07. klokken 14 UTC
Spredte skyer i en høyde av 8000 ft, Bygeskyer.
regnbyger

TAF: ESKN 071130Z 0712/0812 17010KT CAVOK PROB40 0712/0714 SHRA SCT080CB

Værobservasjoner og værvarsel for over 4000 flyplasser (METAR- og TAF-rapporter).

Tilgjengelige stasjoner er representert av de røde og gule prikkene på kartet.

Hold musepekeren over prikken for å se navnet på stasjonen.

Klikk så for å se værobservasjoner og -varsler.

For å forandre kartet kan du klikke på den grønne knappen med svart kryss for å zoome inn, på den grønne knappen med strek for å zoome ut, eller på de grønne pilene for å se tilstøtende kart.


METAR-TAF: